Skip Navigation LinksHome page > Weather > Current weather Skip Navigation Links

Current Weather

Heathrow, London

For information only: do not use for flight planning or navigation.
Latest weather
Observation time Thursday, November 21, 2019 7:20 PM GMT
Local time Thursday, November 21, 2019 8:00 PM GMT
Flight conditions Instrument Meteorological Conditions
Winds
Wind direction East (80°)
Wind speed 13 mph
Visibility 2.9 mi.
Present weather haze
Sky condition
Ceiling 700 ft. broken clouds
Cloud layer broken clouds 700 ft.
Cloud layer overcast 1,300 ft.
Temperature 41°F
Dewpoint 39°F
Altimeter 29.53 in.Hg
Derived measurements
Relative humidity 93%
Wind chill 34°F
Density altitude -636 ft.
Remarks
Fully automated report.
METAR EGLL 211920Z AUTO 08011KT 4700 HZ BKN007 OVC013 05/04 Q1000 TEMPO 5000

Settings

Location code

InnerDrive.Weather 4.0.6770.0 Release CLR 4.0.30319.42000
Copyright ©2018 Inner Drive Technology. All rights reserved. Portions Copyright ©1986-2018 David Braverman.

Find weather

Site navigation


Skip Navigation Links

Place info

Page info

PayPal - The safer, easier way to pay online!

Return home.

Copyright ©2019 Inner Drive Technology. Purveyors of fine, hand-crafted computer software. Page printed 2019-11-21T20:00:20 UTC.